Igarape-Acu, Brazil
Current Conditions -  °F | °C
As of 1:00 AM on Wednesday 26 Nov 2014 (Local Time) from SBBE Reporting Station
Clear Clear  
Wind Chill: 77°   Ceiling: Unl
Heat Index: 78°   Visibility: 6mi
Dew Point: 73°   Wind: 6mph
Humidity: 89%   Direction: 70°ENE
Pressure: 29.8"   Gusts: NA
Location:  1.12°S, 47.63°W
Report Text: SBBE 260400Z 07005KT CAVOK 25/23 Q1009
Loading
Personal Weather Stations






























Interactive Weather Map New forecast layout! Learn more

10-Day Weather Forecast

Advertisements
Track Severe Weather on mobile